Time;durP1;ratioP1;P1;durP2;ratioP2;P2;SDS_P1;SDS_P2;PMS_P1;PMS_P2;Temp;Humidity;BMP_temperature;BMP_pressure;BME280_temperature;BME280_humidity;BME280_pressure;Samples;Min_cycle;Max_cycle;Signal;HPM_P1;HPM_P2
2021/04/15 12:58:59;;;;;;;2.70;1.30;;;;;;;;;;5153361;27;20317;-75
2021/04/15 13:01:28;;;;;;;4.38;1.35;;;;;;;;;;5150042;27;20023;-75
2021/04/15 13:03:54;;;;;;;2.83;1.30;;;;;;;;;;5135809;27;20026;-74
2021/04/15 13:06:21;;;;;;;3.97;1.40;;;;;;;;;;5130061;27;20055;-75
2021/04/15 13:08:57;;;;;;;5.07;2.15;;;;;;;;;;5128920;27;20032;-76
2021/04/15 13:11:23;;;;;;;3.90;1.92;;;;;;;;;;5129267;28;20081;-74
2021/04/15 13:13:51;;;;;;;2.65;1.50;;;;;;;;;;5129851;27;20024;-74
2021/04/15 13:16:32;;;;;;;3.70;1.63;;;;;;;;;;5130437;27;20520;-73
2021/04/15 13:18:59;;;;;;;5.20;1.77;;;;;;;;;;5136343;27;20051;-74
2021/04/15 13:21:27;;;;;;;3.03;1.40;;;;;;;;;;5130300;27;20482;-74
2021/04/15 13:23:53;;;;;;;3.00;1.60;;;;;;;;;;5129081;27;20019;-74
2021/04/15 13:26:22;;;;;;;4.65;2.10;;;;;;;;;;5127960;27;20031;-75
2021/04/15 13:28:48;;;;;;;2.63;1.70;;;;;;;;;;5128977;27;20028;-74
2021/04/15 13:31:33;;;;;;;4.20;2.10;;;;;;;;;;5136098;27;20383;-75
2021/04/15 13:34:04;;;;;;;5.18;2.00;;;;;;;;;;5149677;27;20574;-75
2021/04/15 13:36:31;;;;;;;5.20;1.70;;;;;;;;;;5148931;27;20039;-74
2021/04/15 13:39:00;;;;;;;4.15;2.50;;;;;;;;;;5150557;27;20353;-76
2021/04/15 13:41:32;;;;;;;2.92;1.60;;;;;;;;;;5149899;27;20015;-75
2021/04/15 13:44:01;;;;;;;4.75;2.05;;;;;;;;;;5149678;27;20074;-76
2021/04/15 13:46:29;;;;;;;3.40;1.60;;;;;;;;;;5150047;27;20050;-75
2021/04/15 13:49:07;;;;;;;3.67;1.73;;;;;;;;;;5149297;27;20034;-76
2021/04/15 13:51:56;;;;;;;4.18;1.77;;;;;;;;;;5129051;27;20019;-77
2021/04/15 13:54:30;;;;;;;3.20;1.73;;;;;;;;;;5131947;27;20027;-74
2021/04/15 13:57:04;;;;;;;4.95;1.35;;;;;;;;;;5135940;27;20027;-75
2021/04/15 13:59:33;;;;;;;2.00;1.27;;;11.80;70.70;;;;;;5145324;27;20027;-75
2021/04/15 14:02:05;;;;;;;2.85;1.33;;;24.00;42.40;;;;;;5153886;27;20015;-74
2021/04/15 14:04:40;;;;;;;3.13;1.20;;;24.30;37.60;;;;;;5131197;27;20019;-75
2021/04/15 14:07:34;;;;;;;3.38;1.25;;;23.60;40.70;;;;;;5129623;27;20062;-75
2021/04/15 14:10:06;;;;;;;5.03;1.40;;;24.00;38.80;;;;;;5116571;27;20394;-76
2021/04/15 14:12:53;;;;;;;4.43;1.30;;;24.50;38.80;;;;;;5114690;28;20436;-76
2021/04/15 14:15:34;;;;;;;2.20;1.42;;;24.20;37.00;;;;;;5114978;28;20070;-73
2021/04/15 14:18:18;;;;;;;3.42;1.27;;;23.30;39.00;;;;;;5115036;28;20027;-76
2021/04/15 14:21:09;;;;;;;3.92;1.40;;;20.10;41.00;;;;;;5114062;28;20093;-74
2021/04/15 14:23:55;;;;;;;2.33;1.38;;;17.90;43.90;;;;;;5114481;28;20368;-76
2021/04/15 14:26:32;;;;;;;2.53;1.30;;;16.60;47.00;;;;;;5114466;28;20032;-75
2021/04/15 14:29:23;;;;;;;3.65;1.30;;;16.40;47.40;;;;;;5114712;28;20035;-72
2021/04/15 14:31:55;;;;;;;2.88;1.20;;;15.80;47.40;;;;;;5114425;28;20026;-79
2021/04/15 14:34:26;;;;;;;3.30;1.40;;;15.50;52.00;;;;;;5098015;28;20077;-77
2021/04/15 14:36:55;;;;;;;4.03;1.40;;;13.80;54.80;;;;;;5116327;28;20035;-78
2021/04/15 14:39:26;;;;;;;4.90;1.40;;;;;;;;;;5100043;28;20081;-78
2021/04/15 14:41:54;;;;;;;3.08;1.10;;;;;;;;;;5115798;28;20051;-78
2021/04/15 14:44:21;;;;;;;2.15;1.40;;;;;;;;;;5117246;28;20099;-78
2021/04/15 14:46:47;;;;;;;1.85;1.02;;;;;;;;;;5121457;28;20083;-75
2021/04/15 14:49:15;;;;;;;1.52;1.00;;;;;;;;;;5117238;28;20020;-74
2021/04/15 14:51:42;;;;;;;3.13;1.30;;;;;;;;;;5095499;28;20036;-77
2021/04/15 14:54:18;;;;;;;3.35;1.30;;;;;;;;;;5097003;28;20012;-76
2021/04/15 14:56:45;;;;;;;4.40;1.80;;;;;;;;;;5133624;27;20019;-77
2021/04/15 14:59:21;;;;;;;2.28;1.40;;;;;;;;;;5138974;27;20102;-76
2021/04/15 15:01:48;;;;;;;1.95;1.27;;;;;;;;;;5123096;27;20023;-77
2021/04/15 15:04:35;;;;;;;2.17;1.40;;;;;;;;;;5119107;27;20030;-76
2021/04/15 15:07:02;;;;;;;4.57;1.30;;;;;;;;;;5119784;28;20024;-77
2021/04/15 15:09:32;;;;;;;2.58;1.55;;;;;;;;;;5127713;28;20047;-75
2021/04/15 15:11:59;;;;;;;3.80;1.10;;;;;;;;;;5127423;28;20019;-75
2021/04/15 15:14:27;;;;;;;4.57;1.10;;;;;;;;;;5123903;27;20034;-76
2021/04/15 15:16:53;;;;;;;2.13;1.42;;;;;;;;;;5123219;28;20531;-77
2021/04/15 15:19:24;;;;;;;3.30;1.00;;;;;;;;;;5115391;28;20026;-77
2021/04/15 15:21:53;;;;;;;1.88;1.02;;;;;;;;;;5140657;27;20026;-77
2021/04/15 15:24:22;;;;;;;4.07;1.80;;;;;;;;;;5143163;27;20027;-78
2021/04/15 15:27:00;;;;;;;19.35;11.13;;;;;;;;;;5108323;27;20035;-77
2021/04/15 15:29:34;;;;;;;2.05;1.02;;;;;;;;;;5109701;28;20102;-77
2021/04/15 15:32:17;;;;;;;3.40;2.05;;;;;;;;;;5116737;27;20066;-77
2021/04/15 15:34:46;;;;;;;2.17;1.17;;;;;;;;;;5128857;27;20049;-76
2021/04/15 15:37:17;;;;;;;2.08;1.10;;;;;;;;;;5126705;27;20040;-77
2021/04/15 15:39:43;;;;;;;3.90;2.20;;;;;;;;;;5107821;28;20122;-76
2021/04/15 15:42:11;;;;;;;2.53;1.38;;;;;;;;;;5109519;28;20073;-76
2021/04/15 15:44:37;;;;;;;2.75;1.13;;;;;;;;;;5109786;28;20058;-77
2021/04/15 15:47:04;;;;;;;2.40;1.00;;;;;;;;;;5108894;28;20055;-77
2021/04/15 15:49:31;;;;;;;3.92;1.10;;;;;;;;;;5108931;28;20034;-78
2021/04/15 15:51:57;;;;;;;2.47;1.20;;;;;;;;;;5108953;28;20034;-76
2021/04/15 15:54:51;;;;;;;1.70;0.98;;;12.80;57.20;;;;;;5108593;28;20031;-76
2021/04/15 15:57:16;;;;;;;2.17;0.80;;;18.90;48.20;;;;;;5106581;28;20047;-76
2021/04/15 15:59:46;;;;;;;1.90;0.90;;;19.70;47.30;;;;;;5128262;27;20408;-77
2021/04/15 16:02:26;;;;;;;2.30;1.20;;;19.70;46.10;;;;;;5127897;27;20023;-75
2021/04/15 16:04:55;;;;;;;3.53;1.63;;;18.60;45.80;;;;;;5107601;27;20027;-76
2021/04/15 16:07:27;;;;;;;3.53;1.90;;;16.20;52.40;;;;;;5109804;28;20020;-76
2021/04/15 16:09:59;;;;;;;4.88;1.55;;;14.40;57.30;;;;;;5107779;28;20030;-76
2021/04/15 16:12:41;;;;;;;4.57;2.53;;;13.80;60.30;;;;;;5109788;28;20803;-77
2021/04/15 16:15:19;;;;;;;2.45;1.80;;;13.00;60.70;;;;;;5089850;22;20049;-78
2021/04/15 16:17:47;;;;;;;7.00;2.58;;;12.90;62.80;;;;;;5031268;28;20055;-78
2021/04/15 16:20:14;;;;;;;5.70;2.40;;;12.70;65.40;;;;;;5014286;28;20052;-77
2021/04/15 16:22:40;;;;;;;5.32;2.33;;;13.20;65.00;;;;;;5052543;28;20514;-77
2021/04/15 16:25:08;;;;;;;4.63;2.10;;;14.10;64.60;;;;;;5031491;28;20028;-79
2021/04/15 16:27:33;;;;;;;3.60;2.38;;;14.60;62.20;;;;;;5060455;28;20020;-78
2021/04/15 16:29:59;;;;;;;5.75;2.05;;;15.70;59.30;;;;;;5058021;28;20039;-77
2021/04/15 16:32:25;;;;;;;5.43;1.90;;;16.40;56.60;;;;;;5077461;28;20115;-77
2021/04/15 16:34:51;;;;;;;4.68;2.28;;;16.70;56.70;;;;;;5065325;28;20032;-78
2021/04/15 16:37:20;;;;;;;5.00;2.20;;;17.10;55.80;;;;;;5036246;28;20040;-77
2021/04/15 16:39:47;;;;;;;3.70;1.77;;;17.20;55.40;;;;;;5052078;28;20029;-77
2021/04/15 16:42:20;;;;;;;4.00;1.90;;;16.60;55.10;;;;;;5034330;28;20029;-77
2021/04/15 16:44:46;;;;;;;5.75;1.80;;;16.20;56.00;;;;;;5051436;28;20025;-77
2021/04/15 16:47:12;;;;;;;4.15;1.77;;;15.50;57.00;;;;;;5051641;28;20121;-79
2021/04/15 16:49:38;;;;;;;7.20;1.73;;;14.50;58.00;;;;;;5036486;28;20037;-75
2021/04/15 16:52:05;;;;;;;3.08;1.33;;;13.30;59.30;;;;;;5053492;28;20039;-78
2021/04/15 16:54:31;;;;;;;3.67;1.35;;;12.20;60.60;;;;;;5071376;28;20023;-79
2021/04/15 16:56:57;;;;;;;2.30;1.30;;;12.40;63.70;;;;;;5071517;28;20033;-77
2021/04/15 16:59:24;;;;;;;3.03;1.42;;;;;;;;;;5052568;28;20081;-80
2021/04/15 17:01:50;;;;;;;4.95;1.70;;;;;;;;;;5067985;28;20028;-78
2021/04/15 17:04:17;;;;;;;4.28;1.55;;;;;;;;;;5046114;28;20492;-77
2021/04/15 17:06:43;;;;;;;3.45;1.63;;;;;;;;;;5064010;28;20025;-80
2021/04/15 17:09:10;;;;;;;2.53;1.52;;;;;;;;;;5066199;28;20021;-79
2021/04/15 17:11:36;;;;;;;4.47;1.75;;;;;;;;;;5063467;28;20496;-78
2021/04/15 17:14:02;;;;;;;4.13;1.98;;;;;;;;;;5061400;28;20024;-75
2021/04/15 17:16:30;;;;;;;2.45;1.98;;;;;;;;;;5041756;28;20045;-77
2021/04/15 17:18:56;;;;;;;4.60;2.30;;;;;;;;;;5059133;28;20125;-76
2021/04/15 17:21:22;;;;;;;5.55;2.90;;;;;;;;;;5047567;28;20025;-75
2021/04/15 17:23:55;;;;;;;3.83;1.70;;;;;;;;;;5071186;28;20098;-80
2021/04/15 17:26:22;;;;;;;3.33;1.40;;;;;;;;;;5054011;28;20024;-77
2021/04/15 17:28:48;;;;;;;4.25;1.60;;;;;;;;;;5071314;28;20036;-79
2021/04/15 17:31:15;;;;;;;4.60;1.80;;;;;;;;;;5029652;28;20033;-80
2021/04/15 17:33:41;;;;;;;4.07;1.70;;;;;;;;;;5067871;28;20032;-78
2021/04/15 17:36:07;;;;;;;5.35;1.98;;;;;;;;;;5050962;28;20033;-78
2021/04/15 17:38:33;;;;;;;6.00;3.58;;;;;;;;;;5051186;28;20119;-81
2021/04/15 17:41:01;;;;;;;7.25;2.47;;;;;;;;;;5069851;28;20024;-79
2021/04/15 17:43:28;;;;;;;4.80;1.75;;;;;;;;;;5067895;28;20043;-77
2021/04/15 17:45:54;;;;;;;4.55;2.08;;;;;;;;;;5073637;28;20060;-78
2021/04/15 17:48:22;;;;;;;3.97;1.88;;;;;;;;;;5074384;28;20033;-78
2021/04/15 17:51:02;;;;;;;3.85;1.65;;;;;;;;;;5073075;28;20059;-78
2021/04/15 17:53:29;;;;;;;4.60;1.83;;;;;;;;;;5070791;28;20532;-77
2021/04/15 17:55:55;;;;;;;5.05;1.90;;;;;;;;;;5054984;28;20430;-77
2021/04/15 17:58:22;;;;;;;5.20;2.30;;;;;;;;;;5054854;28;20078;-77
2021/04/15 18:00:49;;;;;;;4.53;1.90;;;;;;;;;;5054078;28;20036;-76
2021/04/15 18:03:15;;;;;;;3.85;1.55;;;;;;;;;;5053470;28;20021;-77
2021/04/15 18:05:42;;;;;;;2.90;1.70;;;;;;;;;;5054584;28;20025;-77
2021/04/15 18:08:08;;;;;;;2.80;1.90;;;;;;;;;;5053792;28;20025;-78
2021/04/15 18:10:40;;;;;;;4.85;2.25;;;;;;;;;;5067607;28;20028;-77
2021/04/15 18:13:07;;;;;;;3.30;1.98;;;;;;;;;;5073881;28;20021;-76
2021/04/15 18:15:33;;;;;;;5.22;2.10;;;;;;;;;;5074538;28;20038;-79
2021/04/15 18:17:59;;;;;;;4.57;3.08;;;;;;;;;;5057143;28;20038;-77
2021/04/15 18:20:29;;;;;;;5.18;2.83;;;;;;;;;;5049330;28;20029;-78
2021/04/15 18:22:55;;;;;;;6.15;2.17;;;;;;;;;;5036608;28;20045;-77
2021/04/15 18:25:22;;;;;;;4.70;2.42;;;;;;;;;;5037205;28;20052;-77
2021/04/15 18:27:51;;;;;;;3.85;2.00;;;;;;;;;;5056912;28;20086;-76
2021/04/15 18:30:19;;;;;;;4.53;2.28;;;;;;;;;;5035684;28;20613;-79
2021/04/15 18:32:48;;;;;;;5.53;2.90;;;;;;;;;;5054542;28;20401;-78
2021/04/15 18:35:14;;;;;;;9.68;3.35;;;;;;;;;;5054375;28;20031;-80
2021/04/15 18:37:40;;;;;;;6.35;2.67;;;;;;;;;;5063382;28;20458;-77
2021/04/15 18:40:07;;;;;;;3.92;2.08;;;;;;;;;;5074501;28;20057;-79
2021/04/15 18:42:33;;;;;;;4.90;2.10;;;;;;;;;;5075359;28;20031;-78
2021/04/15 18:44:59;;;;;;;5.40;2.30;;;;;;;;;;5057385;28;20028;-77
2021/04/15 18:47:25;;;;;;;3.35;2.20;;;;;;;;;;5074654;28;20028;-77
2021/04/15 18:49:51;;;;;;;6.15;2.70;;;;;;;;;;5055602;28;20043;-77
2021/04/15 18:52:18;;;;;;;4.97;1.60;;;;;;;;;;5056572;28;20037;-76
2021/04/15 18:54:44;;;;;;;4.22;1.85;;;;;;;;;;5055572;28;20501;-76
